Time;durP1;ratioP1;P1;durP2;ratioP2;P2;SDS_P1;SDS_P2;PMS_P1;PMS_P2;Temp;Humidity;BMP_temperature;BMP_pressure;BME280_temperature;BME280_humidity;BME280_pressure;Samples;Min_cycle;Max_cycle;Signal;HPM_P1;HPM_P2
2023/03/04 00:02:18;;;;;;;29.13;15.63;;;2.10;99.90;;;;;;5092436;28;20322;-71
2023/03/04 00:04:45;;;;;;;27.10;14.73;;;2.00;99.90;;;;;;5084780;28;20321;-70
2023/03/04 00:07:15;;;;;;;26.63;15.03;;;2.00;99.90;;;;;;5091609;28;20396;-70
2023/03/04 00:09:43;;;;;;;28.33;15.63;;;2.00;99.90;;;;;;5090938;28;20199;-71
2023/03/04 00:12:10;;;;;;;23.93;14.50;;;2.00;99.90;;;;;;5091533;28;20259;-70
2023/03/04 00:14:37;;;;;;;26.13;14.30;;;2.00;99.90;;;;;;5091503;28;20322;-70
2023/03/04 00:17:05;;;;;;;25.67;15.07;;;2.00;99.90;;;;;;5091654;28;20319;-71
2023/03/04 00:19:33;;;;;;;26.60;14.97;;;2.00;99.90;;;;;;5091513;28;20199;-70
2023/03/04 00:22:01;;;;;;;24.00;14.20;;;2.00;99.90;;;;;;5091238;28;20203;-70
2023/03/04 00:24:28;;;;;;;27.97;14.90;;;2.00;99.90;;;;;;5091323;28;20222;-70
2023/03/04 00:26:56;;;;;;;26.60;14.23;;;2.00;99.90;;;;;;5089486;28;20211;-70
2023/03/04 00:29:23;;;;;;;24.67;14.57;;;2.10;99.90;;;;;;5087902;28;20286;-70
2023/03/04 00:31:50;;;;;;;23.70;13.57;;;2.10;99.90;;;;;;5087906;28;20298;-70
2023/03/04 00:34:17;;;;;;;22.37;14.10;;;2.10;99.90;;;;;;5087900;28;20579;-70
2023/03/04 00:36:44;;;;;;;26.03;15.57;;;2.20;99.90;;;;;;5089941;28;20290;-71
2023/03/04 00:39:11;;;;;;;22.47;14.07;;;2.20;99.90;;;;;;5089843;28;20289;-71
2023/03/04 00:41:39;;;;;;;25.17;14.30;;;2.20;99.90;;;;;;5090045;28;20206;-71
2023/03/04 00:44:07;;;;;;;24.67;13.83;;;2.20;99.90;;;;;;5086490;28;20561;-71
2023/03/04 00:46:34;;;;;;;22.63;13.37;;;2.20;99.90;;;;;;5089862;28;20733;-72
2023/03/04 00:49:01;;;;;;;25.07;12.93;;;2.20;99.90;;;;;;5089630;28;20203;-72
2023/03/04 00:51:28;;;;;;;22.53;12.93;;;2.30;99.90;;;;;;5081944;28;20290;-72
2023/03/04 00:53:54;;;;;;;23.17;13.17;;;2.30;99.90;;;;;;5090218;28;20237;-73
2023/03/04 00:56:21;;;;;;;24.87;12.10;;;2.40;99.90;;;;;;5090461;28;20229;-73
2023/03/04 00:58:48;;;;;;;23.03;11.37;;;2.40;99.90;;;;;;5090236;28;20201;-73
2023/03/04 01:01:16;;;;;;;22.27;12.10;;;2.40;99.90;;;;;;5090553;28;20282;-73
2023/03/04 01:03:43;;;;;;;21.10;10.87;;;2.40;99.90;;;;;;5089297;28;20631;-73
2023/03/04 01:08:46;;;;;;;22.40;10.53;;;2.40;99.90;;;;;;5396115;22;20488;-73
2023/03/04 01:11:12;;;;;;;24.73;11.17;;;2.50;99.90;;;;;;5008100;28;20332;-72
2023/03/04 01:13:39;;;;;;;18.93;9.60;;;2.60;99.90;;;;;;5009511;28;20690;-69
2023/03/04 01:16:09;;;;;;;17.10;8.73;;;2.60;99.90;;;;;;5009527;28;20270;-70
2023/03/04 01:18:37;;;;;;;15.47;7.57;;;2.60;99.90;;;;;;5009830;28;20209;-69
2023/03/04 01:21:04;;;;;;;16.30;8.83;;;2.70;99.90;;;;;;5010027;28;20213;-70
2023/03/04 01:23:31;;;;;;;18.80;8.90;;;2.70;99.90;;;;;;5009645;28;20216;-70
2023/03/04 01:25:58;;;;;;;19.80;7.87;;;2.80;99.90;;;;;;5009936;28;20285;-70
2023/03/04 01:28:25;;;;;;;18.30;8.50;;;2.80;99.90;;;;;;5009595;28;20259;-69
2023/03/04 01:30:52;;;;;;;16.83;8.40;;;2.80;99.90;;;;;;5009196;28;20655;-69
2023/03/04 01:33:19;;;;;;;15.60;7.77;;;2.80;99.90;;;;;;5009552;28;20301;-70
2023/03/04 01:35:47;;;;;;;16.03;7.90;;;2.90;99.90;;;;;;5009645;28;20323;-70
2023/03/04 01:38:14;;;;;;;16.70;8.20;;;3.00;99.90;;;;;;5008323;28;20205;-70
2023/03/04 01:40:41;;;;;;;15.43;7.63;;;3.00;99.90;;;;;;5008639;28;20208;-69
2023/03/04 01:43:11;;;;;;;12.50;7.17;;;3.00;99.90;;;;;;5009692;28;20292;-69
2023/03/04 01:45:38;;;;;;;18.10;6.93;;;3.00;99.90;;;;;;5009341;28;20305;-69
2023/03/04 01:48:05;;;;;;;17.17;7.77;;;3.00;99.90;;;;;;5009302;28;20289;-69
2023/03/04 01:50:34;;;;;;;13.67;7.17;;;3.00;99.90;;;;;;5009249;28;20310;-69
2023/03/04 01:53:03;;;;;;;19.13;7.77;;;3.00;99.90;;;;;;5009327;28;20308;-69
2023/03/04 01:55:31;;;;;;;16.93;6.83;;;3.00;99.90;;;;;;5009261;28;20240;-69
2023/03/04 01:57:58;;;;;;;15.23;7.40;;;3.10;99.90;;;;;;5009420;28;20240;-72
2023/03/04 02:00:30;;;;;;;15.83;6.93;;;3.10;99.90;;;;;;5008888;28;20276;-72
2023/03/04 02:03:00;;;;;;;10.73;6.00;;;3.10;99.90;;;;;;5009461;28;20277;-73
2023/03/04 02:05:29;;;;;;;15.93;6.43;;;3.20;99.90;;;;;;5009499;28;20576;-72
2023/03/04 02:07:58;;;;;;;14.87;6.33;;;3.20;99.90;;;;;;5008262;28;20336;-72
2023/03/04 02:10:27;;;;;;;13.37;6.17;;;3.30;99.90;;;;;;5008847;28;20671;-72
2023/03/04 02:12:54;;;;;;;15.10;6.40;;;3.20;99.90;;;;;;5008728;28;20678;-74
2023/03/04 02:15:22;;;;;;;12.17;6.40;;;3.30;99.90;;;;;;5008724;28;20328;-71
2023/03/04 02:17:49;;;;;;;16.63;6.40;;;3.30;99.90;;;;;;5008714;28;20284;-70
2023/03/04 02:20:35;;;;;;;12.23;5.87;;;3.30;99.90;;;;;;5008690;28;20288;-69
2023/03/04 02:23:11;;;;;;;14.20;5.50;;;3.30;99.90;;;;;;5006152;28;20245;-70
2023/03/04 02:25:45;;;;;;;14.60;6.40;;;3.40;99.90;;;;;;5007860;28;20713;-70
2023/03/04 02:28:13;;;;;;;9.00;5.33;;;3.40;99.90;;;;;;5009138;28;20229;-72
2023/03/04 02:30:40;;;;;;;17.30;6.47;;;3.40;99.90;;;;;;5008053;28;20194;-71
2023/03/04 02:33:11;;;;;;;13.37;5.80;;;3.40;99.90;;;;;;5008183;28;20215;-71
2023/03/04 02:35:38;;;;;;;13.43;6.43;;;3.50;99.90;;;;;;5007075;28;20236;-72
2023/03/04 02:38:05;;;;;;;12.37;5.07;;;3.40;99.90;;;;;;5008228;28;20304;-69
2023/03/04 02:40:34;;;;;;;12.40;5.77;;;3.50;99.90;;;;;;5007776;28;20868;-69
2023/03/04 02:43:01;;;;;;;14.87;5.77;;;3.50;99.90;;;;;;5008122;28;20781;-69
2023/03/04 02:45:37;;;;;;;15.63;6.00;;;3.50;99.90;;;;;;5008284;28;20216;-69
2023/03/04 02:48:05;;;;;;;13.87;5.47;;;3.50;99.90;;;;;;5008368;28;20272;-69
2023/03/04 02:50:35;;;;;;;12.13;5.43;;;3.50;99.90;;;;;;5007607;28;20242;-69
2023/03/04 02:53:02;;;;;;;15.53;6.00;;;3.50;99.90;;;;;;5008108;28;20248;-70
2023/03/04 02:55:29;;;;;;;17.27;5.60;;;3.50;99.90;;;;;;5008142;28;20311;-70
2023/03/04 02:57:56;;;;;;;18.57;5.50;;;3.50;99.90;;;;;;5008367;28;20436;-70
2023/03/04 03:00:23;;;;;;;12.60;5.53;;;3.50;99.90;;;;;;5008171;28;20289;-72
2023/03/04 03:02:51;;;;;;;14.63;5.47;;;3.50;99.90;;;;;;5007768;28;20209;-71
2023/03/04 03:05:18;;;;;;;14.47;5.27;;;3.50;99.90;;;;;;5008276;28;20248;-71
2023/03/04 03:07:45;;;;;;;13.73;5.23;;;3.50;99.90;;;;;;5007568;28;20671;-71
2023/03/04 03:10:12;;;;;;;10.70;5.00;;;3.50;99.90;;;;;;5008013;28;20256;-71
2023/03/04 03:12:39;;;;;;;13.33;5.20;;;3.50;99.90;;;;;;5007988;28;20241;-71
2023/03/04 03:15:07;;;;;;;14.33;5.30;;;3.50;99.90;;;;;;5007787;28;20639;-72
2023/03/04 03:17:34;;;;;;;10.63;4.93;;;3.50;99.90;;;;;;5007699;28;20236;-71
2023/03/04 03:20:03;;;;;;;18.33;6.03;;;3.60;99.90;;;;;;5007918;28;20300;-71
2023/03/04 03:22:30;;;;;;;14.87;4.97;;;3.60;99.90;;;;;;5007559;28;20660;-71
2023/03/04 03:24:57;;;;;;;8.57;5.00;;;3.60;99.90;;;;;;5010354;28;20267;-71
2023/03/04 03:27:24;;;;;;;12.27;4.97;;;3.60;99.90;;;;;;5013220;28;20249;-71
2023/03/04 03:29:51;;;;;;;11.13;4.70;;;3.60;99.90;;;;;;5007481;28;20297;-71
2023/03/04 03:32:18;;;;;;;10.47;4.80;;;3.60;99.90;;;;;;5007945;28;20211;-71
2023/03/04 03:34:45;;;;;;;9.90;5.00;;;3.60;99.90;;;;;;5008047;28;20299;-72
2023/03/04 03:37:13;;;;;;;11.50;5.10;;;3.60;99.90;;;;;;5007911;28;20303;-71
2023/03/04 03:39:40;;;;;;;10.50;4.43;;;3.60;99.90;;;;;;5007252;28;20201;-71
2023/03/04 03:42:07;;;;;;;14.43;4.80;;;3.60;99.90;;;;;;5007987;28;20241;-68
2023/03/04 03:44:34;;;;;;;14.07;4.77;;;3.60;99.90;;;;;;5007439;28;20682;-68
2023/03/04 03:47:01;;;;;;;12.00;4.80;;;3.60;99.90;;;;;;5007531;28;20301;-68
2023/03/04 03:49:31;;;;;;;13.27;4.70;;;3.60;99.90;;;;;;5007579;28;20202;-69
2023/03/04 03:51:58;;;;;;;13.73;5.23;;;3.60;99.90;;;;;;5007910;28;20209;-69
2023/03/04 03:54:26;;;;;;;15.13;4.80;;;3.70;99.90;;;;;;5007577;28;20271;-68
2023/03/04 03:56:53;;;;;;;10.57;4.50;;;3.60;99.90;;;;;;5007351;28;20344;-69
2023/03/04 03:59:19;;;;;;;10.53;4.57;;;3.70;99.90;;;;;;5007355;28;20304;-69
2023/03/04 04:01:46;;;;;;;10.83;4.37;;;3.70;99.90;;;;;;5007343;28;20965;-69
2023/03/04 04:04:13;;;;;;;14.10;5.00;;;3.70;99.90;;;;;;5011392;28;20316;-69
2023/03/04 04:06:40;;;;;;;11.87;4.63;;;3.70;99.90;;;;;;5010525;28;20296;-70
2023/03/04 04:09:07;;;;;;;11.00;4.80;;;3.70;99.90;;;;;;5010806;28;20234;-72
2023/03/04 04:11:35;;;;;;;13.33;4.50;;;3.70;99.90;;;;;;5010681;28;20209;-72
2023/03/04 04:14:02;;;;;;;14.90;4.73;;;3.70;99.90;;;;;;5011072;28;20213;-73
2023/03/04 04:16:30;;;;;;;10.80;4.67;;;3.70;99.90;;;;;;5010684;28;20663;-69
2023/03/04 04:18:57;;;;;;;11.93;4.67;;;3.60;99.90;;;;;;5010471;28;20672;-69
2023/03/04 04:21:24;;;;;;;8.93;4.93;;;3.60;99.90;;;;;;5010700;28;20219;-69
2023/03/04 04:23:58;;;;;;;7.30;4.47;;;3.60;99.90;;;;;;5010558;28;20213;-69
2023/03/04 04:26:25;;;;;;;12.50;4.90;;;3.60;99.90;;;;;;5010907;28;20194;-69
2023/03/04 04:28:53;;;;;;;11.77;4.90;;;3.60;99.90;;;;;;5010348;28;20194;-70
2023/03/04 04:31:20;;;;;;;11.67;4.40;;;3.60;99.90;;;;;;5010798;28;20204;-69
2023/03/04 04:33:47;;;;;;;9.70;4.80;;;3.60;99.90;;;;;;5010203;28;20244;-69
2023/03/04 04:36:15;;;;;;;10.87;4.17;;;3.60;99.90;;;;;;5010627;28;20324;-69
2023/03/04 04:38:42;;;;;;;10.20;4.40;;;3.60;99.90;;;;;;5010239;28;20209;-69
2023/03/04 04:41:23;;;;;;;11.10;4.40;;;3.60;99.90;;;;;;5004048;28;20304;-69
2023/03/04 04:43:50;;;;;;;13.17;4.87;;;3.60;99.90;;;;;;4990618;28;20233;-69
2023/03/04 04:46:19;;;;;;;11.13;4.20;;;3.60;99.90;;;;;;4990924;28;20289;-69
2023/03/04 04:48:46;;;;;;;8.57;3.93;;;3.60;99.90;;;;;;4999591;28;20624;-69
2023/03/04 04:51:13;;;;;;;12.13;4.00;;;3.60;99.90;;;;;;5010303;28;20241;-69
2023/03/04 04:53:40;;;;;;;9.33;3.90;;;3.60;99.90;;;;;;5010164;28;20263;-69
2023/03/04 04:56:11;;;;;;;12.40;4.17;;;3.70;99.90;;;;;;5010224;28;20233;-69
2023/03/04 04:58:39;;;;;;;8.40;3.70;;;3.70;99.90;;;;;;5009978;28;20312;-69
2023/03/04 05:01:06;;;;;;;11.13;3.50;;;3.70;99.90;;;;;;5009902;28;20672;-69
2023/03/04 05:03:36;;;;;;;10.13;3.10;;;3.70;99.90;;;;;;5010130;28;20284;-69
2023/03/04 05:06:03;;;;;;;8.10;3.80;;;3.80;99.90;;;;;;5009927;28;20299;-70
2023/03/04 05:08:31;;;;;;;9.40;3.73;;;3.80;99.90;;;;;;5009397;28;20616;-69
2023/03/04 05:10:57;;;;;;;8.07;3.33;;;3.80;99.90;;;;;;5005506;28;20210;-68
2023/03/04 05:13:25;;;;;;;11.27;3.67;;;3.80;99.90;;;;;;5000819;28;20235;-69
2023/03/04 05:15:52;;;;;;;10.47;3.60;;;3.90;99.90;;;;;;5009434;28;20293;-69
2023/03/04 05:18:20;;;;;;;7.53;3.20;;;3.90;99.90;;;;;;5009909;28;20225;-69
2023/03/04 05:20:52;;;;;;;11.50;3.70;;;3.90;99.90;;;;;;5009911;28;20211;-69
2023/03/04 05:23:19;;;;;;;8.80;3.30;;;3.90;99.90;;;;;;5009636;28;20691;-69
2023/03/04 05:25:47;;;;;;;8.00;3.17;;;3.90;99.90;;;;;;5009341;28;20679;-72
2023/03/04 05:28:14;;;;;;;14.27;4.10;;;3.90;99.90;;;;;;5009933;28;20202;-72
2023/03/04 05:30:42;;;;;;;6.77;2.73;;;3.90;99.90;;;;;;5009242;28;20244;-71
2023/03/04 05:33:10;;;;;;;7.37;2.77;;;3.90;99.90;;;;;;5005125;28;20218;-72
2023/03/04 05:35:39;;;;;;;9.80;3.00;;;3.90;99.90;;;;;;4990357;28;20304;-72
2023/03/04 05:38:09;;;;;;;8.23;2.97;;;3.90;99.90;;;;;;5003820;28;20671;-72
2023/03/04 05:40:36;;;;;;;13.27;3.20;;;4.00;99.90;;;;;;5009534;28;20284;-71
2023/03/04 05:43:03;;;;;;;11.43;3.33;;;3.90;99.90;;;;;;5009595;28;20300;-71
2023/03/04 05:45:30;;;;;;;8.70;3.00;;;4.00;99.90;;;;;;5009430;28;20288;-72
2023/03/04 05:47:57;;;;;;;5.90;2.70;;;4.00;99.90;;;;;;5009672;28;20296;-71
2023/03/04 05:50:24;;;;;;;8.60;2.83;;;4.00;99.90;;;;;;5009262;28;20300;-69
2023/03/04 05:52:51;;;;;;;8.80;3.40;;;4.00;99.90;;;;;;5009133;28;20228;-69
2023/03/04 05:55:20;;;;;;;7.70;2.67;;;4.00;99.90;;;;;;5008881;28;20305;-69
2023/03/04 05:57:47;;;;;;;11.00;2.80;;;4.00;99.90;;;;;;5008473;28;20240;-68
2023/03/04 06:00:16;;;;;;;6.67;2.60;;;4.00;99.90;;;;;;5009112;28;20258;-71
2023/03/04 06:02:44;;;;;;;6.17;2.90;;;4.00;99.90;;;;;;5008740;28;20305;-71
2023/03/04 06:05:12;;;;;;;6.13;2.73;;;4.00;99.90;;;;;;5008189;28;20774;-69
2023/03/04 06:07:39;;;;;;;13.63;3.50;;;4.00;99.90;;;;;;5008480;28;20315;-69
2023/03/04 06:10:47;;;;;;;6.57;2.60;;;4.10;99.90;;;;;;5008901;28;20296;-70
2023/03/04 06:13:14;;;;;;;6.07;2.93;;;4.10;99.90;;;;;;4989217;28;20281;-70
2023/03/04 06:15:41;;;;;;;5.43;2.33;;;4.10;99.90;;;;;;4999538;28;20300;-70
2023/03/04 06:18:08;;;;;;;9.60;2.77;;;4.10;99.90;;;;;;5008595;28;20328;-70
2023/03/04 06:20:35;;;;;;;9.97;2.80;;;4.10;99.90;;;;;;5008475;28;20735;-70
2023/03/04 06:23:02;;;;;;;11.27;2.70;;;4.10;99.90;;;;;;5008667;28;20293;-70
2023/03/04 06:25:30;;;;;;;9.47;2.83;;;4.10;99.90;;;;;;5008016;28;20675;-70
2023/03/04 06:27:57;;;;;;;7.87;2.70;;;4.10;99.90;;;;;;5008306;28;20260;-70
2023/03/04 06:30:24;;;;;;;10.30;3.43;;;4.10;99.90;;;;;;5007988;28;20772;-70
2023/03/04 06:32:51;;;;;;;6.43;2.70;;;4.10;99.90;;;;;;5008464;28;20692;-70
2023/03/04 06:35:18;;;;;;;7.10;2.47;;;4.10;99.90;;;;;;5008231;28;20212;-70
2023/03/04 06:37:45;;;;;;;8.67;3.27;;;4.10;99.90;;;;;;5007778;28;20312;-70
2023/03/04 06:40:13;;;;;;;8.87;2.80;;;4.10;99.90;;;;;;5008508;28;20245;-71
2023/03/04 06:42:41;;;;;;;8.47;3.17;;;4.10;99.90;;;;;;5008393;28;20259;-70
2023/03/04 06:45:09;;;;;;;5.20;2.87;;;4.10;99.90;;;;;;5008354;28;20202;-70
2023/03/04 06:47:36;;;;;;;7.00;3.37;;;4.10;99.90;;;;;;5008536;28;20625;-72
2023/03/04 06:50:03;;;;;;;7.30;2.77;;;4.10;99.90;;;;;;5008663;28;20249;-71
2023/03/04 06:52:30;;;;;;;7.70;2.90;;;4.10;99.90;;;;;;5007898;28;20679;-71
2023/03/04 06:54:57;;;;;;;7.97;3.30;;;4.10;99.90;;;;;;5008172;28;20236;-71
2023/03/04 06:57:24;;;;;;;9.37;3.37;;;4.20;99.90;;;;;;5007926;28;20823;-71
2023/03/04 06:59:52;;;;;;;6.63;3.27;;;4.20;99.90;;;;;;5008374;28;20240;-71
2023/03/04 07:02:19;;;;;;;5.17;2.90;;;4.20;99.90;;;;;;5008297;28;20247;-71
2023/03/04 07:04:46;;;;;;;5.93;2.97;;;4.20;99.90;;;;;;5006661;28;20537;-71
2023/03/04 07:07:13;;;;;;;9.17;3.23;;;4.20;99.90;;;;;;4994175;28;20264;-68
2023/03/04 07:09:40;;;;;;;6.60;3.33;;;4.20;99.90;;;;;;5007310;28;20312;-68
2023/03/04 07:12:07;;;;;;;4.07;2.90;;;4.20;99.90;;;;;;5008023;28;20237;-68
2023/03/04 07:14:34;;;;;;;6.80;3.20;;;4.20;99.90;;;;;;5007715;28;20248;-70
2023/03/04 07:17:03;;;;;;;7.90;3.63;;;4.20;99.90;;;;;;5008173;28;20270;-71
2023/03/04 07:19:30;;;;;;;7.10;3.00;;;4.20;99.90;;;;;;5008183;28;20209;-71
2023/03/04 07:21:57;;;;;;;8.27;3.60;;;4.20;99.90;;;;;;5008059;28;20292;-70
2023/03/04 07:24:24;;;;;;;9.00;3.70;;;4.20;99.90;;;;;;5007615;28;20248;-70
2023/03/04 07:26:51;;;;;;;4.90;3.53;;;4.20;99.90;;;;;;5007760;28;20638;-70
2023/03/04 07:29:18;;;;;;;10.53;4.00;;;4.20;99.90;;;;;;5007726;28;20201;-70
2023/03/04 07:31:45;;;;;;;6.60;3.80;;;4.30;99.90;;;;;;5007269;28;21122;-70
2023/03/04 07:34:14;;;;;;;5.57;3.70;;;4.30;99.90;;;;;;5007401;28;20567;-69
2023/03/04 07:36:41;;;;;;;4.47;2.50;;;4.30;99.90;;;;;;5009629;28;20272;-69
2023/03/04 07:39:11;;;;;;;3.37;2.83;;;4.40;99.90;;;;;;5011570;28;20294;-69
2023/03/04 07:41:39;;;;;;;5.33;2.90;;;4.50;99.90;;;;;;5011160;28;20639;-68
2023/03/04 07:44:08;;;;;;;3.00;2.80;;;4.50;99.90;;;;;;5009587;28;20684;-71
2023/03/04 07:46:35;;;;;;;6.37;3.10;;;4.50;99.90;;;;;;5011576;28;20240;-71
2023/03/04 07:49:02;;;;;;;8.40;3.80;;;4.50;99.90;;;;;;5011810;28;20287;-70
2023/03/04 07:51:31;;;;;;;4.20;2.70;;;4.50;99.90;;;;;;5011466;28;20205;-70
2023/03/04 07:54:00;;;;;;;7.00;3.43;;;4.40;99.90;;;;;;5011467;28;20201;-69
2023/03/04 07:56:29;;;;;;;6.67;3.43;;;4.40;99.90;;;;;;5011307;28;20296;-70
2023/03/04 07:58:56;;;;;;;5.80;3.30;;;4.40;99.90;;;;;;5011536;28;20275;-70
2023/03/04 08:01:25;;;;;;;8.10;3.07;;;4.40;99.90;;;;;;5011516;28;20197;-69
2023/03/04 08:03:52;;;;;;;4.97;2.90;;;4.40;99.90;;;;;;5011397;28;20697;-69
2023/03/04 08:06:20;;;;;;;9.20;3.57;;;4.40;99.90;;;;;;5010932;28;20300;-69
2023/03/04 08:08:50;;;;;;;4.00;2.70;;;4.40;99.90;;;;;;5010759;28;20303;-69
2023/03/04 08:11:18;;;;;;;7.57;3.30;;;4.40;99.90;;;;;;5011557;28;20252;-69
2023/03/04 08:13:46;;;;;;;4.77;2.83;;;4.40;99.90;;;;;;5010729;28;20209;-69
2023/03/04 08:16:14;;;;;;;5.17;3.60;;;4.40;99.90;;;;;;5011267;28;20292;-69
2023/03/04 08:18:42;;;;;;;7.90;3.20;;;4.50;99.90;;;;;;5011040;28;20221;-69
2023/03/04 08:21:10;;;;;;;4.17;2.77;;;4.50;99.90;;;;;;5010899;28;20271;-69
2023/03/04 08:23:38;;;;;;;6.50;2.90;;;4.60;99.90;;;;;;5010870;28;20206;-69
2023/03/04 08:26:12;;;;;;;10.40;2.90;;;4.60;99.90;;;;;;5003068;28;20210;-69
2023/03/04 08:28:39;;;;;;;11.17;2.87;;;4.60;99.90;;;;;;4991588;28;20210;-68
2023/03/04 08:31:06;;;;;;;3.57;2.43;;;4.70;99.90;;;;;;5000986;28;20211;-69
2023/03/04 08:33:33;;;;;;;9.80;3.30;;;4.70;99.90;;;;;;5010262;28;20703;-69
2023/03/04 08:36:00;;;;;;;5.83;2.40;;;4.70;99.90;;;;;;5009093;28;20264;-69
2023/03/04 08:38:27;;;;;;;5.17;2.60;;;4.80;99.90;;;;;;5009272;28;20378;-69
2023/03/04 08:40:56;;;;;;;5.43;2.27;;;4.80;99.90;;;;;;5010403;28;20216;-69
2023/03/04 08:43:25;;;;;;;5.50;2.70;;;4.80;99.90;;;;;;5010356;28;20260;-69
2023/03/04 08:45:53;;;;;;;6.00;2.80;;;4.90;99.90;;;;;;5009112;28;20206;-68
2023/03/04 08:48:20;;;;;;;5.30;2.63;;;4.90;99.90;;;;;;5007847;28;20213;-69
2023/03/04 08:50:48;;;;;;;3.93;2.60;;;4.90;99.90;;;;;;5008092;28;20661;-69
2023/03/04 08:53:16;;;;;;;3.67;2.90;;;4.90;99.90;;;;;;5007595;28;20807;-69
2023/03/04 08:55:44;;;;;;;4.33;2.70;;;5.00;99.90;;;;;;5007857;28;20205;-68
2023/03/04 08:58:11;;;;;;;5.93;2.70;;;5.00;99.90;;;;;;5007779;28;20233;-68
2023/03/04 09:00:43;;;;;;;2.70;2.30;;;5.00;99.90;;;;;;5007840;28;20323;-68
2023/03/04 09:03:11;;;;;;;4.17;2.73;;;5.00;99.90;;;;;;5007918;28;20202;-69
2023/03/04 09:05:39;;;;;;;8.70;3.00;;;5.00;99.90;;;;;;5008131;28;20248;-69
2023/03/04 09:08:06;;;;;;;7.43;3.03;;;5.00;99.90;;;;;;5007999;28;20331;-69
2023/03/04 09:10:33;;;;;;;7.00;3.27;;;5.10;99.90;;;;;;5006466;28;20268;-69
2023/03/04 09:13:00;;;;;;;6.63;2.83;;;5.10;99.90;;;;;;5002542;28;20233;-69
2023/03/04 09:15:27;;;;;;;4.03;2.50;;;5.10;99.90;;;;;;5007898;28;20209;-69
2023/03/04 09:17:56;;;;;;;4.63;2.30;;;5.10;99.90;;;;;;5007603;28;20299;-69
2023/03/04 09:20:23;;;;;;;4.13;2.07;;;5.10;99.90;;;;;;5007492;28;20210;-69
2023/03/04 09:22:50;;;;;;;5.50;2.20;;;5.10;99.90;;;;;;4995180;28;20268;-69
2023/03/04 09:25:17;;;;;;;5.43;2.60;;;5.10;99.90;;;;;;4988165;28;20268;-69
2023/03/04 09:27:44;;;;;;;7.57;2.33;;;5.20;99.90;;;;;;4987609;28;20744;-69
2023/03/04 09:30:12;;;;;;;7.33;2.40;;;5.20;99.90;;;;;;4989723;28;20214;-68
2023/03/04 09:32:40;;;;;;;4.77;1.87;;;5.20;99.90;;;;;;5007296;28;20297;-68
2023/03/04 09:35:09;;;;;;;2.80;1.70;;;5.30;99.90;;;;;;5007552;28;20224;-69
2023/03/04 09:37:37;;;;;;;3.23;1.53;;;5.30;99.90;;;;;;5007332;28;20708;-68
2023/03/04 09:40:07;;;;;;;3.53;1.70;;;5.40;99.90;;;;;;5007291;28;20228;-69
2023/03/04 09:42:36;;;;;;;4.30;1.90;;;5.40;99.90;;;;;;5004483;28;20206;-69
2023/03/04 09:45:07;;;;;;;3.53;1.80;;;5.40;99.90;;;;;;5006921;28;20201;-68
2023/03/04 09:47:37;;;;;;;5.77;1.70;;;5.50;99.90;;;;;;5006781;28;20652;-69
2023/03/04 09:50:10;;;;;;;9.30;1.73;;;5.50;99.90;;;;;;5006378;28;20222;-68
2023/03/04 09:52:51;;;;;;;3.40;1.80;;;5.50;99.90;;;;;;5005926;28;20198;-69
2023/03/04 09:55:24;;;;;;;3.97;2.00;;;5.60;99.90;;;;;;5006905;28;20301;-69
2023/03/04 09:57:53;;;;;;;6.70;1.80;;;5.60;99.90;;;;;;4986885;28;20763;-68
2023/03/04 10:00:23;;;;;;;7.33;2.03;;;5.70;99.90;;;;;;4986428;28;20206;-69
2023/03/04 10:03:12;;;;;;;4.20;2.00;;;5.70;99.90;;;;;;5002620;28;20324;-69
2023/03/04 10:05:45;;;;;;;3.93;1.60;;;5.70;99.90;;;;;;5006369;28;20248;-69
2023/03/04 10:08:27;;;;;;;5.67;1.87;;;5.70;99.90;;;;;;5005980;28;20244;-69
2023/03/04 10:10:56;;;;;;;5.20;1.67;;;5.80;99.90;;;;;;5006050;28;20201;-69
2023/03/04 10:13:31;;;;;;;7.97;2.00;;;5.80;99.90;;;;;;4986793;28;20293;-69
2023/03/04 10:16:01;;;;;;;3.47;1.67;;;5.80;99.90;;;;;;5003477;28;20292;-69
2023/03/04 10:18:33;;;;;;;7.97;1.93;;;5.80;99.90;;;;;;5005899;28;20786;-69
2023/03/04 10:21:07;;;;;;;6.20;2.00;;;5.80;99.90;;;;;;5006559;28;20284;-68
2023/03/04 10:23:36;;;;;;;8.17;2.27;;;5.90;99.90;;;;;;5005851;28;20194;-68
2023/03/04 10:26:12;;;;;;;8.73;2.20;;;5.90;99.90;;;;;;5006776;28;20220;-68
2023/03/04 10:28:40;;;;;;;8.03;2.50;;;5.90;99.90;;;;;;5006544;28;20299;-69
2023/03/04 10:31:15;;;;;;;4.90;2.13;;;5.90;99.90;;;;;;5006543;28;20743;-68
2023/03/04 10:33:43;;;;;;;4.77;2.07;;;6.00;99.90;;;;;;5005728;28;20673;-68
2023/03/04 10:36:32;;;;;;;7.23;2.20;;;6.00;99.90;;;;;;5006231;28;20331;-69
2023/03/04 10:39:03;;;;;;;12.17;2.53;;;6.00;99.90;;;;;;5006203;28;20313;-68
2023/03/04 10:41:32;;;;;;;6.57;2.07;;;6.00;99.90;;;;;;5005802;28;20260;-68
2023/03/04 10:44:02;;;;;;;5.77;2.33;;;6.00;99.90;;;;;;5005315;28;20232;-69
2023/03/04 10:46:29;;;;;;;6.97;2.40;;;6.00;99.90;;;;;;4993523;28;20232;-69
2023/03/04 10:48:57;;;;;;;9.40;2.67;;;6.10;99.90;;;;;;5002468;28;20313;-68
2023/03/04 10:51:28;;;;;;;9.50;2.03;;;6.10;99.90;;;;;;4997843;28;20297;-69
2023/03/04 10:53:58;;;;;;;5.57;2.13;;;6.10;99.90;;;;;;4978045;28;20209;-69
2023/03/04 10:56:37;;;;;;;10.73;2.80;;;6.20;99.90;;;;;;5012384;28;20297;-69
2023/03/04 10:59:32;;;;;;;9.57;2.40;;;6.10;99.90;;;;;;5004523;28;20229;-69
2023/03/04 11:02:11;;;;;;;8.87;2.07;;;6.20;99.90;;;;;;4985737;28;20209;-67
2023/03/04 11:04:38;;;;;;;7.43;2.60;;;6.20;99.90;;;;;;5005607;28;20207;-67
2023/03/04 11:07:10;;;;;;;5.93;2.20;;;6.30;99.90;;;;;;5005424;28;20923;-67
2023/03/04 11:09:39;;;;;;;9.90;2.93;;;6.30;99.90;;;;;;5024597;28;20240;-67
2023/03/04 11:12:11;;;;;;;6.17;2.10;;;6.30;99.90;;;;;;5008352;28;20206;-67
2023/03/04 11:14:43;;;;;;;8.47;2.20;;;6.30;99.90;;;;;;5005233;28;20229;-67
2023/03/04 11:17:23;;;;;;;9.70;2.33;;;6.30;99.90;;;;;;5022743;28;20209;-67
2023/03/04 11:19:56;;;;;;;9.73;2.70;;;6.30;99.90;;;;;;5019020;28;20274;-68
2023/03/04 11:22:29;;;;;;;7.63;2.27;;;6.30;99.90;;;;;;5019431;28;20949;-68
2023/03/04 11:25:01;;;;;;;13.33;2.80;;;6.30;99.90;;;;;;5005193;28;20280;-68
2023/03/04 11:27:38;;;;;;;8.17;2.50;;;6.30;99.90;;;;;;5010307;28;20618;-69
2023/03/04 11:30:20;;;;;;;9.43;3.07;;;6.30;99.90;;;;;;5004712;28;20251;-69
2023/03/04 11:32:51;;;;;;;6.73;2.50;;;6.20;99.90;;;;;;4984591;28;20245;-69
2023/03/04 11:35:25;;;;;;;9.00;3.10;;;6.20;99.90;;;;;;4997304;28;20296;-69
2023/03/04 11:38:04;;;;;;;10.20;3.33;;;6.20;99.90;;;;;;5021331;28;20295;-69
2023/03/04 11:40:38;;;;;;;16.10;3.70;;;6.20;99.90;;;;;;5003785;28;20702;-69
2023/03/04 11:43:12;;;;;;;10.37;2.60;;;6.20;99.90;;;;;;4997896;28;20301;-69
2023/03/04 11:46:20;;;;;;;10.77;3.03;;;6.20;99.90;;;;;;5001118;28;20206;-69
2023/03/04 11:48:57;;;;;;;7.30;2.63;;;6.20;99.90;;;;;;5000350;28;20245;-69
2023/03/04 11:51:33;;;;;;;9.70;2.93;;;6.20;99.90;;;;;;5003265;28;20639;-69
2023/03/04 11:54:17;;;;;;;10.33;3.30;;;6.20;99.90;;;;;;5003877;28;20318;-69
2023/03/04 11:56:47;;;;;;;7.20;2.70;;;6.20;99.90;;;;;;5003145;28;20722;-69
2023/03/04 11:59:29;;;;;;;10.47;2.83;;;6.20;99.90;;;;;;5006427;28;20233;-69
2023/03/04 12:02:13;;;;;;;8.57;2.80;;;6.20;99.90;;;;;;5004821;28;20216;-69
2023/03/04 12:05:24;;;;;;;10.77;2.77;;;6.20;99.90;;;;;;5004539;28;20209;-69
2023/03/04 12:08:18;;;;;;;16.37;2.83;;;6.20;99.90;;;;;;4959990;28;20309;-69
2023/03/04 12:10:55;;;;;;;8.53;2.67;;;6.20;99.90;;;;;;5008571;28;20237;-69
2023/03/04 12:13:51;;;;;;;10.60;3.43;;;6.20;99.90;;;;;;5024366;28;20713;-69
2023/03/04 12:16:32;;;;;;;10.77;2.50;;;6.20;99.90;;;;;;5011952;28;20212;-69
2023/03/04 12:19:15;;;;;;;9.23;2.83;;;6.10;99.90;;;;;;5004981;28;20276;-69
2023/03/04 12:22:01;;;;;;;10.57;2.97;;;6.10;99.90;;;;;;5003314;28;20280;-68
2023/03/04 12:24:54;;;;;;;13.70;3.03;;;6.10;99.90;;;;;;5007283;28;20260;-69
2023/03/04 12:27:29;;;;;;;10.17;2.63;;;6.10;99.90;;;;;;5008159;28;20201;-69
2023/03/04 12:30:04;;;;;;;12.50;3.00;;;6.10;99.90;;;;;;5008323;28;20209;-69
2023/03/04 12:32:40;;;;;;;8.10;2.40;;;6.20;99.90;;;;;;5008666;28;20562;-68
2023/03/04 12:35:37;;;;;;;8.03;2.70;;;6.20;99.90;;;;;;5008034;28;20196;-70
2023/03/04 12:38:19;;;;;;;9.40;2.47;;;6.10;99.90;;;;;;5004647;28;20304;-71
2023/03/04 12:40:53;;;;;;;11.90;2.80;;;6.20;99.90;;;;;;5007664;28;20271;-69
2023/03/04 12:43:51;;;;;;;10.00;2.80;;;6.20;99.90;;;;;;5007663;28;20288;-69
2023/03/04 12:46:31;;;;;;;9.20;2.43;;;6.20;99.90;;;;;;5013086;28;20307;-70
2023/03/04 12:49:18;;;;;;;9.50;2.30;;;6.20;99.90;;;;;;5021337;28;20296;-70
2023/03/04 12:51:52;;;;;;;7.03;2.30;;;6.20;99.90;;;;;;4997329;28;20233;-69
2023/03/04 12:54:29;;;;;;;11.20;2.47;;;6.20;99.90;;;;;;5008425;28;20297;-69
2023/03/04 12:57:00;;;;;;;8.53;2.60;;;6.20;99.90;;;;;;5000423;28;21151;-70
2023/03/04 12:59:34;;;;;;;7.97;2.10;;;6.20;99.90;;;;;;4994815;28;20603;-69
2023/03/04 13:02:15;;;;;;;11.10;2.33;;;6.20;99.90;;;;;;5006802;28;20281;-69
2023/03/04 13:04:53;;;;;;;7.40;2.53;;;6.20;99.90;;;;;;5007751;28;20309;-69
2023/03/04 13:07:28;;;;;;;8.40;2.47;;;6.20;99.90;;;;;;5005906;28;20307;-71
2023/03/04 13:10:00;;;;;;;6.40;2.20;;;6.20;99.90;;;;;;5005161;28;20203;-69